KSPF/SPF METAR and TAF weather

Enter ICAO airport designator
Station Type Date Time Source
KSPF METAR 2019/06/19 02:55 UTC NOAA

KSPF 190255Z AUTO 02004KT 10SM BKN110 13/13 A2993 RMK AO2


Station Type Date Time Source
KSPF Decoded METAR 2019/06/19 02:55 UTC NOAA

Spearfish / Clyde Ice, SD, United States (KSPF) 44-29N 103-47W
Jun 18, 2019 - 10:55 PM EDT / 2019.06.19 0255 UTC
Wind: from the NNE (020 degrees) at 5 MPH (4 KT):0
Visibility: 10 mile(s):0
Sky conditions: mostly cloudy
Temperature: 55 F (13 C)
Dew Point: 55 F (13 C)
Relative Humidity: 100%
Pressure (altimeter): 29.93 in. Hg (1013 hPa)
ob: KSPF 190255Z AUTO 02004KT 10SM BKN110 13/13 A2993 RMK AO2
cycle: 3

Station Type Date Time Source
KSPF TAF UTC NOAA

Error!

Example: see airport list